Chalmette, Louisiana
Current Conditions -  °F | °C
As of 9:55 AM on Friday 28 Nov 2014 (Local Time) from KVSH Reporting Station
Clear Clear  
Wind Chill: 52°   Ceiling: Unl
Heat Index: 52°   Visibility: 10mi
Dew Point: 36°   Wind: 3mph
Humidity: 54%   Direction: 90°E
Pressure: 30.45"   Gusts: NA
Location:  29.94°N, 89.97°W
Report Text: KVSH 281555Z AUTO 09003KT 10SM CLR 11/02 A3045 RMK AO1
Loading
Personal Weather Stations






























Interactive Weather Map New forecast layout! Learn more

10-Day Weather Forecast

Advertisements
Track Severe Weather on mobile